sensor_id;sensor_type;location;lat;lon;timestamp;P1;durP1;ratioP1;P2;durP2;ratioP2
82630;SDS011;72301;52.376;9.738;2024-01-16T00:01:45;5.47;;;2.15;;
82630;SDS011;72301;52.376;9.738;2024-01-16T00:04:11;5.18;;;1.98;;
82630;SDS011;72301;52.376;9.738;2024-01-16T00:06:40;6.03;;;2.00;;
82630;SDS011;72301;52.376;9.738;2024-01-16T00:09:12;6.20;;;2.10;;
82630;SDS011;72301;52.376;9.738;2024-01-16T00:11:41;5.18;;;2.00;;
82630;SDS011;72301;52.376;9.738;2024-01-16T00:16:55;6.20;;;2.20;;
82630;SDS011;72301;52.376;9.738;2024-01-16T00:19:24;5.30;;;1.90;;
82630;SDS011;72301;52.376;9.738;2024-01-16T00:21:58;5.20;;;1.92;;
82630;SDS011;72301;52.376;9.738;2024-01-16T00:44:37;5.60;;;1.63;;
82630;SDS011;72301;52.376;9.738;2024-01-16T00:54:03;4.82;;;1.60;;
82630;SDS011;72301;52.376;9.738;2024-01-16T00:57:24;5.47;;;1.65;;
82630;SDS011;72301;52.376;9.738;2024-01-16T01:00:28;4.65;;;1.60;;
82630;SDS011;72301;52.376;9.738;2024-01-16T01:10:35;5.22;;;1.77;;
82630;SDS011;72301;52.376;9.738;2024-01-16T01:20:03;4.95;;;1.67;;
82630;SDS011;72301;52.376;9.738;2024-01-16T01:22:29;6.20;;;1.70;;
82630;SDS011;72301;52.376;9.738;2024-01-16T01:25:01;5.00;;;1.80;;
82630;SDS011;72301;52.376;9.738;2024-01-16T01:27:30;5.30;;;1.50;;
82630;SDS011;72301;52.376;9.738;2024-01-16T01:32:32;4.28;;;1.50;;
82630;SDS011;72301;52.376;9.738;2024-01-16T01:35:03;5.60;;;1.80;;
82630;SDS011;72301;52.376;9.738;2024-01-16T01:37:29;6.25;;;1.80;;
82630;SDS011;72301;52.376;9.738;2024-01-16T01:39:58;4.13;;;1.50;;
82630;SDS011;72301;52.376;9.738;2024-01-16T01:42:28;5.32;;;1.60;;
82630;SDS011;72301;52.376;9.738;2024-01-16T01:45:01;5.00;;;1.65;;
82630;SDS011;72301;52.376;9.738;2024-01-16T01:47:39;5.43;;;1.80;;
82630;SDS011;72301;52.376;9.738;2024-01-16T01:50:14;4.80;;;1.58;;
82630;SDS011;72301;52.376;9.738;2024-01-16T01:52:46;4.53;;;1.50;;
82630;SDS011;72301;52.376;9.738;2024-01-16T01:55:15;3.38;;;1.27;;
82630;SDS011;72301;52.376;9.738;2024-01-16T01:57:42;4.95;;;1.80;;
82630;SDS011;72301;52.376;9.738;2024-01-16T02:00:11;4.90;;;1.70;;
82630;SDS011;72301;52.376;9.738;2024-01-16T02:05:35;5.10;;;1.63;;
82630;SDS011;72301;52.376;9.738;2024-01-16T02:11:34;5.97;;;1.80;;
82630;SDS011;72301;52.376;9.738;2024-01-16T02:14:03;4.65;;;1.40;;
82630;SDS011;72301;52.376;9.738;2024-01-16T02:16:36;4.55;;;1.60;;
82630;SDS011;72301;52.376;9.738;2024-01-16T02:19:51;4.93;;;1.65;;
82630;SDS011;72301;52.376;9.738;2024-01-16T02:32:01;5.82;;;2.00;;
82630;SDS011;72301;52.376;9.738;2024-01-16T02:41:43;4.78;;;1.50;;
82630;SDS011;72301;52.376;9.738;2024-01-16T03:12:56;4.70;;;1.30;;
82630;SDS011;72301;52.376;9.738;2024-01-16T03:16:09;4.57;;;1.38;;
82630;SDS011;72301;52.376;9.738;2024-01-16T03:25:52;4.75;;;1.30;;
82630;SDS011;72301;52.376;9.738;2024-01-16T03:28:21;4.90;;;1.38;;
82630;SDS011;72301;52.376;9.738;2024-01-16T03:30:50;5.00;;;1.58;;
82630;SDS011;72301;52.376;9.738;2024-01-16T03:33:21;4.13;;;1.40;;
82630;SDS011;72301;52.376;9.738;2024-01-16T03:35:52;5.40;;;1.83;;
82630;SDS011;72301;52.376;9.738;2024-01-16T03:38:24;5.05;;;1.60;;
82630;SDS011;72301;52.376;9.738;2024-01-16T03:40:55;4.22;;;1.40;;
82630;SDS011;72301;52.376;9.738;2024-01-16T03:43:24;3.95;;;1.30;;
82630;SDS011;72301;52.376;9.738;2024-01-16T03:45:49;4.22;;;1.30;;
82630;SDS011;72301;52.376;9.738;2024-01-16T03:51:07;4.10;;;1.40;;
82630;SDS011;72301;52.376;9.738;2024-01-16T03:53:39;4.72;;;1.33;;
82630;SDS011;72301;52.376;9.738;2024-01-16T03:56:13;4.10;;;1.20;;
82630;SDS011;72301;52.376;9.738;2024-01-16T03:58:44;4.20;;;1.40;;
82630;SDS011;72301;52.376;9.738;2024-01-16T04:01:18;4.13;;;1.52;;
82630;SDS011;72301;52.376;9.738;2024-01-16T04:03:46;3.83;;;1.20;;
82630;SDS011;72301;52.376;9.738;2024-01-16T04:08:41;4.55;;;1.80;;
82630;SDS011;72301;52.376;9.738;2024-01-16T04:11:13;3.22;;;1.10;;
82630;SDS011;72301;52.376;9.738;2024-01-16T04:13:45;3.47;;;1.30;;
82630;SDS011;72301;52.376;9.738;2024-01-16T04:16:11;3.72;;;1.23;;
82630;SDS011;72301;52.376;9.738;2024-01-16T04:18:41;4.45;;;1.20;;
82630;SDS011;72301;52.376;9.738;2024-01-16T04:21:17;3.63;;;1.10;;
82630;SDS011;72301;52.376;9.738;2024-01-16T04:31:05;4.18;;;1.23;;
82630;SDS011;72301;52.376;9.738;2024-01-16T04:36:57;3.65;;;1.20;;
82630;SDS011;72301;52.376;9.738;2024-01-16T04:39:49;2.58;;;0.85;;
82630;SDS011;72301;52.376;9.738;2024-01-16T04:42:19;3.08;;;0.90;;
82630;SDS011;72301;52.376;9.738;2024-01-16T04:54:33;3.63;;;1.25;;
82630;SDS011;72301;52.376;9.738;2024-01-16T04:57:05;4.13;;;1.27;;
82630;SDS011;72301;52.376;9.738;2024-01-16T04:59:33;4.30;;;1.13;;
82630;SDS011;72301;52.376;9.738;2024-01-16T05:02:32;2.85;;;1.02;;
82630;SDS011;72301;52.376;9.738;2024-01-16T05:09:02;3.30;;;1.00;;
82630;SDS011;72301;52.376;9.738;2024-01-16T05:15:19;3.20;;;1.45;;
82630;SDS011;72301;52.376;9.738;2024-01-16T05:18:35;4.43;;;1.10;;
82630;SDS011;72301;52.376;9.738;2024-01-16T05:21:04;4.55;;;1.25;;
82630;SDS011;72301;52.376;9.738;2024-01-16T05:23:32;4.43;;;1.20;;
82630;SDS011;72301;52.376;9.738;2024-01-16T05:25:58;4.22;;;1.23;;
82630;SDS011;72301;52.376;9.738;2024-01-16T05:28:23;4.13;;;1.20;;
82630;SDS011;72301;52.376;9.738;2024-01-16T05:30:49;3.97;;;1.20;;
82630;SDS011;72301;52.376;9.738;2024-01-16T05:33:15;5.45;;;1.52;;
82630;SDS011;72301;52.376;9.738;2024-01-16T05:35:41;3.92;;;1.10;;
82630;SDS011;72301;52.376;9.738;2024-01-16T05:38:09;3.08;;;1.10;;
82630;SDS011;72301;52.376;9.738;2024-01-16T05:40:37;4.20;;;1.20;;
82630;SDS011;72301;52.376;9.738;2024-01-16T05:43:02;3.60;;;1.10;;
82630;SDS011;72301;52.376;9.738;2024-01-16T05:45:28;3.78;;;1.08;;
82630;SDS011;72301;52.376;9.738;2024-01-16T05:47:54;2.70;;;1.10;;
82630;SDS011;72301;52.376;9.738;2024-01-16T05:50:21;4.85;;;1.17;;
82630;SDS011;72301;52.376;9.738;2024-01-16T05:55:20;2.92;;;0.93;;
82630;SDS011;72301;52.376;9.738;2024-01-16T05:57:48;2.83;;;0.85;;
82630;SDS011;72301;52.376;9.738;2024-01-16T06:00:14;3.65;;;1.02;;
82630;SDS011;72301;52.376;9.738;2024-01-16T06:02:39;3.05;;;1.00;;
82630;SDS011;72301;52.376;9.738;2024-01-16T06:05:08;3.47;;;1.00;;
82630;SDS011;72301;52.376;9.738;2024-01-16T06:07:37;3.78;;;1.20;;
82630;SDS011;72301;52.376;9.738;2024-01-16T06:10:03;3.80;;;1.40;;
82630;SDS011;72301;52.376;9.738;2024-01-16T06:12:32;3.85;;;1.10;;
82630;SDS011;72301;52.376;9.738;2024-01-16T06:14:58;4.32;;;1.35;;
82630;SDS011;72301;52.376;9.738;2024-01-16T06:21:02;2.80;;;0.95;;
82630;SDS011;72301;52.376;9.738;2024-01-16T06:27:43;3.33;;;1.02;;
82630;SDS011;72301;52.376;9.738;2024-01-16T06:30:42;4.03;;;1.02;;
82630;SDS011;72301;52.376;9.738;2024-01-16T06:33:55;3.35;;;1.23;;
82630;SDS011;72301;52.376;9.738;2024-01-16T06:43:41;2.75;;;0.80;;
82630;SDS011;72301;52.376;9.738;2024-01-16T06:46:23;4.43;;;1.10;;
82630;SDS011;72301;52.376;9.738;2024-01-16T06:51:48;3.95;;;0.95;;
82630;SDS011;72301;52.376;9.738;2024-01-16T06:54:19;2.63;;;1.00;;
82630;SDS011;72301;52.376;9.738;2024-01-16T06:57:39;2.83;;;0.80;;
82630;SDS011;72301;52.376;9.738;2024-01-16T07:03:53;2.03;;;0.77;;
82630;SDS011;72301;52.376;9.738;2024-01-16T07:12:51;3.28;;;0.85;;
82630;SDS011;72301;52.376;9.738;2024-01-16T07:18:50;2.95;;;1.23;;
82630;SDS011;72301;52.376;9.738;2024-01-16T07:21:18;4.30;;;1.10;;
82630;SDS011;72301;52.376;9.738;2024-01-16T07:23:45;3.33;;;0.90;;
82630;SDS011;72301;52.376;9.738;2024-01-16T07:26:11;2.95;;;1.00;;
82630;SDS011;72301;52.376;9.738;2024-01-16T07:31:41;3.70;;;1.00;;
82630;SDS011;72301;52.376;9.738;2024-01-16T07:34:07;3.45;;;1.02;;
82630;SDS011;72301;52.376;9.738;2024-01-16T07:36:33;2.47;;;0.82;;
82630;SDS011;72301;52.376;9.738;2024-01-16T07:39:04;4.07;;;1.30;;
82630;SDS011;72301;52.376;9.738;2024-01-16T07:41:30;4.20;;;0.90;;
82630;SDS011;72301;52.376;9.738;2024-01-16T07:43:56;2.60;;;0.90;;
82630;SDS011;72301;52.376;9.738;2024-01-16T07:46:31;3.10;;;1.10;;
82630;SDS011;72301;52.376;9.738;2024-01-16T07:48:56;1.95;;;0.88;;
82630;SDS011;72301;52.376;9.738;2024-01-16T07:51:30;3.38;;;0.90;;
82630;SDS011;72301;52.376;9.738;2024-01-16T07:54:14;3.35;;;1.00;;
82630;SDS011;72301;52.376;9.738;2024-01-16T07:56:40;4.03;;;1.00;;
82630;SDS011;72301;52.376;9.738;2024-01-16T07:59:05;3.83;;;1.30;;
82630;SDS011;72301;52.376;9.738;2024-01-16T08:01:34;3.63;;;1.55;;
82630;SDS011;72301;52.376;9.738;2024-01-16T08:04:03;7.95;;;1.77;;
82630;SDS011;72301;52.376;9.738;2024-01-16T08:06:29;6.80;;;1.50;;
82630;SDS011;72301;52.376;9.738;2024-01-16T08:08:54;6.57;;;2.15;;
82630;SDS011;72301;52.376;9.738;2024-01-16T08:11:20;5.10;;;1.60;;
82630;SDS011;72301;52.376;9.738;2024-01-16T08:13:46;5.20;;;1.70;;
82630;SDS011;72301;52.376;9.738;2024-01-16T08:16:15;5.78;;;1.63;;
82630;SDS011;72301;52.376;9.738;2024-01-16T08:22:01;5.65;;;1.63;;
82630;SDS011;72301;52.376;9.738;2024-01-16T08:24:33;5.70;;;1.60;;
82630;SDS011;72301;52.376;9.738;2024-01-16T08:26:59;5.57;;;1.50;;
82630;SDS011;72301;52.376;9.738;2024-01-16T08:29:50;5.18;;;1.98;;
82630;SDS011;72301;52.376;9.738;2024-01-16T08:32:19;5.03;;;1.50;;
82630;SDS011;72301;52.376;9.738;2024-01-16T08:35:06;4.72;;;1.77;;
82630;SDS011;72301;52.376;9.738;2024-01-16T08:37:54;7.25;;;1.95;;
82630;SDS011;72301;52.376;9.738;2024-01-16T08:40:54;6.28;;;1.80;;
82630;SDS011;72301;52.376;9.738;2024-01-16T08:43:24;4.70;;;1.70;;
82630;SDS011;72301;52.376;9.738;2024-01-16T08:49:57;8.10;;;1.70;;
82630;SDS011;72301;52.376;9.738;2024-01-16T09:02:02;5.97;;;1.70;;
82630;SDS011;72301;52.376;9.738;2024-01-16T09:08:17;4.65;;;1.42;;
82630;SDS011;72301;52.376;9.738;2024-01-16T09:14:33;4.75;;;1.40;;
82630;SDS011;72301;52.376;9.738;2024-01-16T09:17:41;5.38;;;1.42;;
82630;SDS011;72301;52.376;9.738;2024-01-16T09:20:07;5.05;;;1.50;;
82630;SDS011;72301;52.376;9.738;2024-01-16T09:22:33;4.95;;;1.60;;
82630;SDS011;72301;52.376;9.738;2024-01-16T09:25:02;4.22;;;1.52;;
82630;SDS011;72301;52.376;9.738;2024-01-16T09:27:28;4.32;;;1.20;;
82630;SDS011;72301;52.376;9.738;2024-01-16T09:29:56;6.53;;;1.80;;
82630;SDS011;72301;52.376;9.738;2024-01-16T09:32:25;5.55;;;1.77;;
82630;SDS011;72301;52.376;9.738;2024-01-16T09:35:01;4.72;;;1.50;;
82630;SDS011;72301;52.376;9.738;2024-01-16T09:37:32;4.72;;;1.25;;
82630;SDS011;72301;52.376;9.738;2024-01-16T09:40:01;10.75;;;2.00;;
82630;SDS011;72301;52.376;9.738;2024-01-16T09:42:27;4.93;;;1.13;;
82630;SDS011;72301;52.376;9.738;2024-01-16T09:44:53;4.90;;;1.40;;
82630;SDS011;72301;52.376;9.738;2024-01-16T09:47:21;4.88;;;1.73;;
82630;SDS011;72301;52.376;9.738;2024-01-16T09:49:47;5.97;;;1.60;;
82630;SDS011;72301;52.376;9.738;2024-01-16T09:52:27;5.45;;;1.73;;
82630;SDS011;72301;52.376;9.738;2024-01-16T09:54:54;5.90;;;1.58;;
82630;SDS011;72301;52.376;9.738;2024-01-16T09:57:20;4.82;;;1.75;;
82630;SDS011;72301;52.376;9.738;2024-01-16T09:59:50;5.38;;;1.60;;
82630;SDS011;72301;52.376;9.738;2024-01-16T10:02:19;5.18;;;1.35;;
82630;SDS011;72301;52.376;9.738;2024-01-16T10:04:48;4.28;;;1.38;;
82630;SDS011;72301;52.376;9.738;2024-01-16T10:07:14;4.40;;;1.35;;
82630;SDS011;72301;52.376;9.738;2024-01-16T10:09:41;6.45;;;1.90;;
82630;SDS011;72301;52.376;9.738;2024-01-16T10:12:07;5.85;;;1.33;;
82630;SDS011;72301;52.376;9.738;2024-01-16T10:14:35;3.78;;;1.52;;
82630;SDS011;72301;52.376;9.738;2024-01-16T10:17:22;5.90;;;2.03;;
82630;SDS011;72301;52.376;9.738;2024-01-16T10:20:08;6.50;;;1.52;;
82630;SDS011;72301;52.376;9.738;2024-01-16T10:26:09;4.97;;;1.60;;
82630;SDS011;72301;52.376;9.738;2024-01-16T10:47:35;4.25;;;1.40;;
82630;SDS011;72301;52.376;9.738;2024-01-16T10:54:04;4.35;;;1.20;;
82630;SDS011;72301;52.376;9.738;2024-01-16T11:02:59;3.75;;;1.30;;
82630;SDS011;72301;52.376;9.738;2024-01-16T11:05:50;3.28;;;1.20;;
82630;SDS011;72301;52.376;9.738;2024-01-16T11:08:17;4.85;;;1.48;;
82630;SDS011;72301;52.376;9.738;2024-01-16T11:14:17;5.15;;;1.45;;
82630;SDS011;72301;52.376;9.738;2024-01-16T11:17:27;4.30;;;1.48;;
82630;SDS011;72301;52.376;9.738;2024-01-16T11:20:08;3.70;;;1.10;;
82630;SDS011;72301;52.376;9.738;2024-01-16T11:22:39;4.72;;;1.33;;
82630;SDS011;72301;52.376;9.738;2024-01-16T11:27:42;5.72;;;1.77;;
82630;SDS011;72301;52.376;9.738;2024-01-16T11:30:09;5.45;;;1.70;;
82630;SDS011;72301;52.376;9.738;2024-01-16T11:32:39;6.75;;;1.35;;
82630;SDS011;72301;52.376;9.738;2024-01-16T11:35:08;4.53;;;1.20;;
82630;SDS011;72301;52.376;9.738;2024-01-16T11:37:34;4.30;;;1.52;;
82630;SDS011;72301;52.376;9.738;2024-01-16T11:42:47;5.32;;;1.80;;
82630;SDS011;72301;52.376;9.738;2024-01-16T11:48:10;4.18;;;1.23;;
82630;SDS011;72301;52.376;9.738;2024-01-16T11:50:36;4.82;;;1.42;;
82630;SDS011;72301;52.376;9.738;2024-01-16T11:53:02;4.10;;;1.25;;
82630;SDS011;72301;52.376;9.738;2024-01-16T12:01:47;5.35;;;1.33;;
82630;SDS011;72301;52.376;9.738;2024-01-16T12:04:16;4.38;;;1.30;;
82630;SDS011;72301;52.376;9.738;2024-01-16T12:06:56;4.07;;;1.40;;
82630;SDS011;72301;52.376;9.738;2024-01-16T12:09:27;4.57;;;1.58;;
82630;SDS011;72301;52.376;9.738;2024-01-16T12:11:56;4.35;;;1.52;;
82630;SDS011;72301;52.376;9.738;2024-01-16T12:14:26;4.88;;;1.38;;
82630;SDS011;72301;52.376;9.738;2024-01-16T12:17:13;3.95;;;1.25;;
82630;SDS011;72301;52.376;9.738;2024-01-16T12:19:41;4.82;;;1.50;;
82630;SDS011;72301;52.376;9.738;2024-01-16T12:22:12;3.75;;;1.10;;
82630;SDS011;72301;52.376;9.738;2024-01-16T12:24:38;4.88;;;1.50;;
82630;SDS011;72301;52.376;9.738;2024-01-16T12:27:07;6.10;;;1.88;;
82630;SDS011;72301;52.376;9.738;2024-01-16T12:33:12;4.50;;;1.15;;
82630;SDS011;72301;52.376;9.738;2024-01-16T12:35:49;4.15;;;1.35;;
82630;SDS011;72301;52.376;9.738;2024-01-16T12:38:25;5.57;;;1.50;;
82630;SDS011;72301;52.376;9.738;2024-01-16T12:41:09;4.75;;;1.33;;
82630;SDS011;72301;52.376;9.738;2024-01-16T12:46:32;5.45;;;1.65;;
82630;SDS011;72301;52.376;9.738;2024-01-16T12:49:04;3.15;;;1.10;;
82630;SDS011;72301;52.376;9.738;2024-01-16T12:51:44;4.82;;;1.50;;
82630;SDS011;72301;52.376;9.738;2024-01-16T12:57:25;3.55;;;1.13;;
82630;SDS011;72301;52.376;9.738;2024-01-16T13:03:34;4.10;;;1.50;;
82630;SDS011;72301;52.376;9.738;2024-01-16T13:09:06;4.38;;;1.35;;
82630;SDS011;72301;52.376;9.738;2024-01-16T13:11:48;4.13;;;1.33;;
82630;SDS011;72301;52.376;9.738;2024-01-16T13:14:24;8.15;;;1.80;;
82630;SDS011;72301;52.376;9.738;2024-01-16T13:19:44;4.75;;;1.48;;
82630;SDS011;72301;52.376;9.738;2024-01-16T13:22:35;4.53;;;1.30;;
82630;SDS011;72301;52.376;9.738;2024-01-16T13:25:22;5.68;;;2.30;;
82630;SDS011;72301;52.376;9.738;2024-01-16T13:27:48;5.47;;;1.88;;
82630;SDS011;72301;52.376;9.738;2024-01-16T13:30:29;4.53;;;1.77;;
82630;SDS011;72301;52.376;9.738;2024-01-16T13:32:54;5.18;;;1.80;;
82630;SDS011;72301;52.376;9.738;2024-01-16T13:35:23;4.55;;;1.42;;
82630;SDS011;72301;52.376;9.738;2024-01-16T13:37:52;5.00;;;1.90;;
82630;SDS011;72301;52.376;9.738;2024-01-16T13:40:20;5.28;;;1.58;;
82630;SDS011;72301;52.376;9.738;2024-01-16T13:43:06;5.03;;;1.88;;
82630;SDS011;72301;52.376;9.738;2024-01-16T13:45:58;5.30;;;1.80;;
82630;SDS011;72301;52.376;9.738;2024-01-16T13:48:33;4.78;;;1.60;;
82630;SDS011;72301;52.376;9.738;2024-01-16T13:51:47;5.60;;;1.60;;
82630;SDS011;72301;52.376;9.738;2024-01-16T13:54:28;5.70;;;2.05;;
82630;SDS011;72301;52.376;9.738;2024-01-16T14:00:18;4.50;;;1.60;;
82630;SDS011;72301;52.376;9.738;2024-01-16T14:02:44;5.15;;;1.55;;
82630;SDS011;72301;52.376;9.738;2024-01-16T14:16:13;4.78;;;1.80;;
82630;SDS011;72301;52.376;9.738;2024-01-16T14:18:44;4.80;;;1.70;;
82630;SDS011;72301;52.376;9.738;2024-01-16T14:21:16;4.75;;;1.77;;
82630;SDS011;72301;52.376;9.738;2024-01-16T14:23:45;4.93;;;1.80;;
82630;SDS011;72301;52.376;9.738;2024-01-16T14:26:14;5.18;;;1.60;;
82630;SDS011;72301;52.376;9.738;2024-01-16T14:28:42;5.60;;;1.80;;
82630;SDS011;72301;52.376;9.738;2024-01-16T14:31:08;4.55;;;1.40;;
82630;SDS011;72301;52.376;9.738;2024-01-16T14:33:35;5.10;;;1.70;;
82630;SDS011;72301;52.376;9.738;2024-01-16T14:36:00;5.97;;;1.90;;
82630;SDS011;72301;52.376;9.738;2024-01-16T14:38:26;4.65;;;1.58;;
82630;SDS011;72301;52.376;9.738;2024-01-16T14:40:58;4.30;;;1.70;;
82630;SDS011;72301;52.376;9.738;2024-01-16T14:43:23;5.05;;;1.50;;
82630;SDS011;72301;52.376;9.738;2024-01-16T14:45:49;5.20;;;1.90;;
82630;SDS011;72301;52.376;9.738;2024-01-16T14:48:15;5.88;;;1.88;;
82630;SDS011;72301;52.376;9.738;2024-01-16T14:50:47;4.70;;;1.52;;
82630;SDS011;72301;52.376;9.738;2024-01-16T14:53:17;6.13;;;1.90;;
82630;SDS011;72301;52.376;9.738;2024-01-16T14:55:46;4.93;;;2.10;;
82630;SDS011;72301;52.376;9.738;2024-01-16T14:58:12;6.78;;;2.00;;
82630;SDS011;72301;52.376;9.738;2024-01-16T15:00:38;3.80;;;1.60;;
82630;SDS011;72301;52.376;9.738;2024-01-16T15:03:04;6.07;;;1.60;;
82630;SDS011;72301;52.376;9.738;2024-01-16T15:05:39;5.20;;;1.73;;
82630;SDS011;72301;52.376;9.738;2024-01-16T15:08:05;5.32;;;1.92;;
82630;SDS011;72301;52.376;9.738;2024-01-16T15:10:34;5.22;;;1.70;;
82630;SDS011;72301;52.376;9.738;2024-01-16T15:13:01;5.47;;;1.90;;
82630;SDS011;72301;52.376;9.738;2024-01-16T15:18:44;5.18;;;1.63;;
82630;SDS011;72301;52.376;9.738;2024-01-16T15:21:24;4.82;;;1.60;;
82630;SDS011;72301;52.376;9.738;2024-01-16T15:24:17;5.63;;;1.83;;
82630;SDS011;72301;52.376;9.738;2024-01-16T15:33:17;5.25;;;1.63;;
82630;SDS011;72301;52.376;9.738;2024-01-16T15:39:05;6.80;;;2.13;;
82630;SDS011;72301;52.376;9.738;2024-01-16T15:41:34;4.70;;;1.60;;
82630;SDS011;72301;52.376;9.738;2024-01-16T15:44:25;4.47;;;1.90;;
82630;SDS011;72301;52.376;9.738;2024-01-16T15:53:54;4.65;;;1.60;;
82630;SDS011;72301;52.376;9.738;2024-01-16T16:09:13;5.85;;;1.92;;
82630;SDS011;72301;52.376;9.738;2024-01-16T16:14:32;4.47;;;1.60;;
82630;SDS011;72301;52.376;9.738;2024-01-16T16:17:04;5.30;;;2.00;;
82630;SDS011;72301;52.376;9.738;2024-01-16T16:19:34;5.93;;;2.30;;
82630;SDS011;72301;52.376;9.738;2024-01-16T16:22:03;6.38;;;2.30;;
82630;SDS011;72301;52.376;9.738;2024-01-16T16:24:29;5.38;;;2.10;;
82630;SDS011;72301;52.376;9.738;2024-01-16T16:27:00;5.95;;;2.22;;
82630;SDS011;72301;52.376;9.738;2024-01-16T16:29:25;6.15;;;2.38;;
82630;SDS011;72301;52.376;9.738;2024-01-16T16:31:51;5.40;;;1.83;;
82630;SDS011;72301;52.376;9.738;2024-01-16T16:34:17;5.65;;;1.77;;
82630;SDS011;72301;52.376;9.738;2024-01-16T16:36:49;5.07;;;1.85;;
82630;SDS011;72301;52.376;9.738;2024-01-16T16:39:17;4.85;;;1.65;;
82630;SDS011;72301;52.376;9.738;2024-01-16T16:42:18;4.75;;;2.00;;
82630;SDS011;72301;52.376;9.738;2024-01-16T16:45:00;5.63;;;2.40;;
82630;SDS011;72301;52.376;9.738;2024-01-16T16:47:32;5.80;;;2.03;;
82630;SDS011;72301;52.376;9.738;2024-01-16T16:50:07;6.30;;;2.00;;
82630;SDS011;72301;52.376;9.738;2024-01-16T16:52:39;6.50;;;1.83;;
82630;SDS011;72301;52.376;9.738;2024-01-16T16:55:16;5.40;;;2.40;;
82630;SDS011;72301;52.376;9.738;2024-01-16T16:57:53;5.45;;;2.00;;
82630;SDS011;72301;52.376;9.738;2024-01-16T17:00:19;6.47;;;2.10;;
82630;SDS011;72301;52.376;9.738;2024-01-16T17:02:52;5.03;;;1.77;;
82630;SDS011;72301;52.376;9.738;2024-01-16T17:05:21;6.35;;;2.15;;
82630;SDS011;72301;52.376;9.738;2024-01-16T17:07:49;6.53;;;2.47;;
82630;SDS011;72301;52.376;9.738;2024-01-16T17:10:16;4.55;;;1.70;;
82630;SDS011;72301;52.376;9.738;2024-01-16T17:12:51;6.43;;;2.00;;
82630;SDS011;72301;52.376;9.738;2024-01-16T17:15:21;5.57;;;2.17;;
82630;SDS011;72301;52.376;9.738;2024-01-16T17:17:57;5.78;;;2.30;;
82630;SDS011;72301;52.376;9.738;2024-01-16T17:20:31;5.82;;;1.90;;
82630;SDS011;72301;52.376;9.738;2024-01-16T17:22:56;6.83;;;2.20;;
82630;SDS011;72301;52.376;9.738;2024-01-16T17:25:22;5.65;;;2.05;;
82630;SDS011;72301;52.376;9.738;2024-01-16T17:27:47;6.47;;;1.93;;
82630;SDS011;72301;52.376;9.738;2024-01-16T17:30:14;5.88;;;2.10;;
82630;SDS011;72301;52.376;9.738;2024-01-16T17:32:40;5.40;;;1.70;;
82630;SDS011;72301;52.376;9.738;2024-01-16T17:35:06;4.60;;;1.80;;
82630;SDS011;72301;52.376;9.738;2024-01-16T17:37:32;5.38;;;1.75;;
82630;SDS011;72301;52.376;9.738;2024-01-16T17:39:57;5.10;;;1.83;;
82630;SDS011;72301;52.376;9.738;2024-01-16T17:42:23;6.17;;;1.50;;
82630;SDS011;72301;52.376;9.738;2024-01-16T17:44:48;5.53;;;2.00;;
82630;SDS011;72301;52.376;9.738;2024-01-16T17:47:14;4.82;;;2.00;;
82630;SDS011;72301;52.376;9.738;2024-01-16T17:49:39;5.05;;;1.70;;
82630;SDS011;72301;52.376;9.738;2024-01-16T17:52:04;4.03;;;1.50;;
82630;SDS011;72301;52.376;9.738;2024-01-16T17:54:37;6.07;;;1.98;;
82630;SDS011;72301;52.376;9.738;2024-01-16T17:57:05;5.53;;;2.00;;
82630;SDS011;72301;52.376;9.738;2024-01-16T17:59:31;5.97;;;1.63;;
82630;SDS011;72301;52.376;9.738;2024-01-16T18:01:58;4.70;;;1.90;;
82630;SDS011;72301;52.376;9.738;2024-01-16T18:04:23;4.87;;;1.50;;
82630;SDS011;72301;52.376;9.738;2024-01-16T18:06:48;5.13;;;1.87;;
82630;SDS011;72301;52.376;9.738;2024-01-16T18:09:14;5.40;;;1.73;;
82630;SDS011;72301;52.376;9.738;2024-01-16T18:11:53;6.90;;;1.92;;
82630;SDS011;72301;52.376;9.738;2024-01-16T18:14:19;5.22;;;1.60;;
82630;SDS011;72301;52.376;9.738;2024-01-16T18:16:45;4.60;;;1.60;;
82630;SDS011;72301;52.376;9.738;2024-01-16T18:19:14;7.30;;;2.53;;
82630;SDS011;72301;52.376;9.738;2024-01-16T18:21:40;7.03;;;3.00;;
82630;SDS011;72301;52.376;9.738;2024-01-16T18:24:05;5.53;;;1.80;;
82630;SDS011;72301;52.376;9.738;2024-01-16T18:26:30;5.30;;;1.90;;
82630;SDS011;72301;52.376;9.738;2024-01-16T18:28:56;5.97;;;2.10;;
82630;SDS011;72301;52.376;9.738;2024-01-16T18:31:21;7.30;;;2.38;;
82630;SDS011;72301;52.376;9.738;2024-01-16T18:33:46;6.53;;;2.30;;
82630;SDS011;72301;52.376;9.738;2024-01-16T18:36:12;7.30;;;2.57;;
82630;SDS011;72301;52.376;9.738;2024-01-16T18:38:37;4.78;;;1.60;;
82630;SDS011;72301;52.376;9.738;2024-01-16T18:41:05;4.53;;;1.60;;
82630;SDS011;72301;52.376;9.738;2024-01-16T18:43:31;6.32;;;2.15;;
82630;SDS011;72301;52.376;9.738;2024-01-16T18:45:57;6.68;;;2.25;;
82630;SDS011;72301;52.376;9.738;2024-01-16T18:48:22;6.40;;;2.10;;
82630;SDS011;72301;52.376;9.738;2024-01-16T18:50:48;5.47;;;1.95;;
82630;SDS011;72301;52.376;9.738;2024-01-16T18:53:19;6.85;;;2.03;;
82630;SDS011;72301;52.376;9.738;2024-01-16T18:55:44;6.20;;;2.00;;
82630;SDS011;72301;52.376;9.738;2024-01-16T18:58:10;8.07;;;2.45;;
82630;SDS011;72301;52.376;9.738;2024-01-16T19:00:35;7.45;;;2.05;;
82630;SDS011;72301;52.376;9.738;2024-01-16T19:03:01;6.43;;;2.72;;
82630;SDS011;72301;52.376;9.738;2024-01-16T19:05:27;7.25;;;2.33;;
82630;SDS011;72301;52.376;9.738;2024-01-16T19:07:52;7.07;;;2.05;;
82630;SDS011;72301;52.376;9.738;2024-01-16T19:10:18;10.18;;;2.42;;
82630;SDS011;72301;52.376;9.738;2024-01-16T19:12:44;8.77;;;2.57;;
82630;SDS011;72301;52.376;9.738;2024-01-16T19:15:13;7.05;;;2.50;;
82630;SDS011;72301;52.376;9.738;2024-01-16T19:17:42;6.72;;;2.58;;
82630;SDS011;72301;52.376;9.738;2024-01-16T19:20:15;10.57;;;3.40;;
82630;SDS011;72301;52.376;9.738;2024-01-16T19:22:41;8.70;;;3.35;;
82630;SDS011;72301;52.376;9.738;2024-01-16T19:25:07;9.15;;;3.10;;
82630;SDS011;72301;52.376;9.738;2024-01-16T19:27:33;11.07;;;3.05;;
82630;SDS011;72301;52.376;9.738;2024-01-16T19:29:58;8.45;;;3.03;;
82630;SDS011;72301;52.376;9.738;2024-01-16T19:32:27;8.27;;;2.90;;
82630;SDS011;72301;52.376;9.738;2024-01-16T19:34:53;6.67;;;2.57;;
82630;SDS011;72301;52.376;9.738;2024-01-16T19:37:18;6.83;;;2.23;;
82630;SDS011;72301;52.376;9.738;2024-01-16T19:39:44;8.80;;;2.85;;
82630;SDS011;72301;52.376;9.738;2024-01-16T19:42:11;9.10;;;2.20;;
82630;SDS011;72301;52.376;9.738;2024-01-16T19:44:36;5.90;;;2.15;;
82630;SDS011;72301;52.376;9.738;2024-01-16T19:47:02;6.93;;;2.13;;
82630;SDS011;72301;52.376;9.738;2024-01-16T19:49:27;8.10;;;2.50;;
82630;SDS011;72301;52.376;9.738;2024-01-16T19:51:53;7.00;;;2.60;;
82630;SDS011;72301;52.376;9.738;2024-01-16T19:54:18;7.53;;;2.30;;
82630;SDS011;72301;52.376;9.738;2024-01-16T19:56:43;7.33;;;2.53;;
82630;SDS011;72301;52.376;9.738;2024-01-16T19:59:09;7.25;;;2.28;;
82630;SDS011;72301;52.376;9.738;2024-01-16T20:01:35;5.82;;;2.20;;
82630;SDS011;72301;52.376;9.738;2024-01-16T20:04:00;7.47;;;2.50;;
82630;SDS011;72301;52.376;9.738;2024-01-16T20:06:29;7.07;;;2.30;;
82630;SDS011;72301;52.376;9.738;2024-01-16T20:08:55;6.68;;;2.25;;
82630;SDS011;72301;52.376;9.738;2024-01-16T20:11:30;5.95;;;2.00;;
82630;SDS011;72301;52.376;9.738;2024-01-16T20:13:56;6.22;;;2.08;;
82630;SDS011;72301;52.376;9.738;2024-01-16T20:16:24;8.48;;;2.50;;
82630;SDS011;72301;52.376;9.738;2024-01-16T20:18:51;8.73;;;3.00;;
82630;SDS011;72301;52.376;9.738;2024-01-16T20:21:19;7.60;;;3.10;;
82630;SDS011;72301;52.376;9.738;2024-01-16T20:23:44;7.45;;;2.80;;
82630;SDS011;72301;52.376;9.738;2024-01-16T20:26:10;6.47;;;2.40;;
82630;SDS011;72301;52.376;9.738;2024-01-16T20:28:35;5.77;;;2.30;;
82630;SDS011;72301;52.376;9.738;2024-01-16T20:31:00;7.07;;;3.00;;
82630;SDS011;72301;52.376;9.738;2024-01-16T20:33:26;6.53;;;2.20;;